createdAt,value
2023-04-22T00:00:23.387Z,6.15
2023-04-22T00:02:51.098Z,6.38
2023-04-22T00:05:21.212Z,5.35
2023-04-22T00:07:52.426Z,5.93
2023-04-22T00:10:20.195Z,6.05
2023-04-22T00:12:53.981Z,6.97
2023-04-22T00:15:25.643Z,5.53
2023-04-22T00:17:54.147Z,5.97
2023-04-22T00:20:24.586Z,6.40
2023-04-22T00:22:52.905Z,5.82
2023-04-22T00:25:34.537Z,6.13
2023-04-22T00:28:02.037Z,6.35
2023-04-22T00:30:30.406Z,6.95
2023-04-22T00:32:57.948Z,7.10
2023-04-22T00:35:26.175Z,6.57
2023-04-22T00:37:54.122Z,6.65
2023-04-22T00:40:24.698Z,7.22
2023-04-22T00:42:57.482Z,7.85
2023-04-22T00:45:27.587Z,7.40
2023-04-22T00:47:56.726Z,6.18
2023-04-22T00:50:28.063Z,7.53
2023-04-22T00:52:59.222Z,9.40
2023-04-22T00:55:40.393Z,6.88
2023-04-22T00:58:14.469Z,7.97
2023-04-22T01:00:41.926Z,7.90
2023-04-22T01:03:10.903Z,8.30
2023-04-22T01:05:39.532Z,8.80
2023-04-22T01:08:07.087Z,9.98
2023-04-22T01:10:37.889Z,9.85
2023-04-22T01:13:05.283Z,10.38
2023-04-22T01:15:33.234Z,10.10
2023-04-22T01:18:04.703Z,9.25
2023-04-22T01:20:32.119Z,8.95
2023-04-22T01:23:03.442Z,9.77
2023-04-22T01:25:30.870Z,8.85
2023-04-22T01:27:58.695Z,8.48
2023-04-22T01:30:36.694Z,9.13
2023-04-22T01:33:07.273Z,8.35
2023-04-22T01:35:37.384Z,7.95
2023-04-22T01:38:08.377Z,8.65
2023-04-22T01:40:35.805Z,8.45
2023-04-22T01:43:03.522Z,7.78
2023-04-22T01:45:33.863Z,8.90
2023-04-22T01:48:01.401Z,8.27
2023-04-22T01:50:31.760Z,7.32
2023-04-22T01:53:02.372Z,8.30
2023-04-22T01:55:36.368Z,7.88
2023-04-22T01:58:09.549Z,8.80
2023-04-22T02:00:50.127Z,8.85
2023-04-22T02:03:17.605Z,8.75
2023-04-22T02:05:45.419Z,10.52
2023-04-22T02:08:13.117Z,9.90
2023-04-22T02:10:40.790Z,8.70
2023-04-22T02:13:10.910Z,9.52
2023-04-22T02:15:41.539Z,9.38
2023-04-22T02:18:12.066Z,10.00
2023-04-22T02:20:49.809Z,9.30
2023-04-22T02:23:20.360Z,9.77
2023-04-22T02:25:53.774Z,9.55
2023-04-22T02:28:21.136Z,11.30
2023-04-22T02:30:48.488Z,9.60
2023-04-22T02:33:15.924Z,9.32
2023-04-22T02:35:43.259Z,10.10
2023-04-22T02:38:18.831Z,9.43
2023-04-22T02:40:49.375Z,9.02
2023-04-22T02:43:20.701Z,8.68
2023-04-22T02:45:48.550Z,9.32
2023-04-22T02:48:18.965Z,10.07
2023-04-22T02:50:46.634Z,10.77
2023-04-22T02:53:16.787Z,10.48
2023-04-22T02:55:44.052Z,9.20
2023-04-22T02:58:14.452Z,9.32
2023-04-22T03:00:41.651Z,9.00
2023-04-22T03:03:08.950Z,10.85
2023-04-22T03:05:36.134Z,10.13
2023-04-22T03:08:03.251Z,9.68
2023-04-22T03:10:31.039Z,9.45
2023-04-22T03:12:58.474Z,8.63
2023-04-22T03:15:26.354Z,9.55
2023-04-22T03:17:55.074Z,9.48
2023-04-22T03:20:23.802Z,9.18
2023-04-22T03:22:51.025Z,8.57
2023-04-22T03:25:18.190Z,9.00
2023-04-22T03:27:51.007Z,10.57
2023-04-22T03:30:19.251Z,8.85
2023-04-22T03:32:47.615Z,9.68
2023-04-22T03:35:25.040Z,8.02
2023-04-22T03:37:53.827Z,10.07
2023-04-22T03:40:31.440Z,9.25
2023-04-22T03:43:00.025Z,10.32
2023-04-22T03:45:27.388Z,10.35
2023-04-22T03:48:09.828Z,9.57
2023-04-22T03:50:42.641Z,10.43
2023-04-22T03:53:10.212Z,9.50
2023-04-22T03:55:38.605Z,8.70
2023-04-22T03:58:06.069Z,8.43
2023-04-22T04:00:33.692Z,9.45
2023-04-22T04:03:10.036Z,9.82
2023-04-22T04:05:37.922Z,9.80
2023-04-22T04:08:05.023Z,9.07
2023-04-22T04:10:32.352Z,9.48
2023-04-22T04:13:00.792Z,8.45
2023-04-22T04:15:32.875Z,8.65
2023-04-22T04:18:01.567Z,7.63
2023-04-22T04:20:31.767Z,7.63
2023-04-22T04:22:59.349Z,8.35
2023-04-22T04:25:26.839Z,8.82
2023-04-22T04:27:54.346Z,7.55
2023-04-22T04:30:22.135Z,9.02
2023-04-22T04:32:54.221Z,7.22
2023-04-22T04:35:21.740Z,8.77
2023-04-22T04:37:54.042Z,7.80
2023-04-22T04:40:22.168Z,7.47
2023-04-22T04:43:04.919Z,7.72
2023-04-22T04:45:38.055Z,7.90
2023-04-22T04:48:09.809Z,7.60
2023-04-22T04:50:44.597Z,7.88
2023-04-22T04:53:12.703Z,7.20
2023-04-22T04:55:42.665Z,7.28
2023-04-22T04:58:25.037Z,7.03
2023-04-22T05:01:06.778Z,6.95
2023-04-22T05:03:34.467Z,6.85
2023-04-22T05:06:01.875Z,7.05
2023-04-22T05:08:29.200Z,7.30
2023-04-22T05:11:03.687Z,7.22
2023-04-22T05:13:31.212Z,8.18
2023-04-22T05:15:59.983Z,7.05
2023-04-22T05:18:27.398Z,6.75
2023-04-22T05:20:55.728Z,7.57
2023-04-22T05:23:23.390Z,7.40
2023-04-22T05:25:53.768Z,7.95
2023-04-22T05:28:23.629Z,7.57
2023-04-22T05:30:55.101Z,7.18
2023-04-22T05:33:22.670Z,7.70
2023-04-22T05:35:52.489Z,7.45
2023-04-22T05:38:20.299Z,7.95
2023-04-22T05:40:47.380Z,8.02
2023-04-22T05:43:16.398Z,8.45
2023-04-22T05:45:50.425Z,8.55
2023-04-22T05:48:18.678Z,8.10
2023-04-22T05:50:57.057Z,8.05
2023-04-22T05:53:26.567Z,7.90
2023-04-22T05:55:54.259Z,8.30
2023-04-22T05:58:21.502Z,8.23
2023-04-22T06:00:57.511Z,8.07
2023-04-22T06:03:51.832Z,9.47
2023-04-22T06:06:19.489Z,9.35
2023-04-22T06:08:47.684Z,8.52
2023-04-22T06:11:14.944Z,8.55
2023-04-22T06:13:42.123Z,8.90
2023-04-22T06:16:10.718Z,8.55
2023-04-22T06:18:38.498Z,8.07
2023-04-22T06:21:10.954Z,8.95
2023-04-22T06:23:38.250Z,8.98
2023-04-22T06:26:05.705Z,8.30
2023-04-22T06:28:33.597Z,8.18
2023-04-22T06:31:05.680Z,9.02
2023-04-22T06:33:32.870Z,9.02
2023-04-22T06:36:01.669Z,9.30
2023-04-22T06:38:31.358Z,8.55
2023-04-22T06:41:23.670Z,7.85
2023-04-22T06:43:52.968Z,7.68
2023-04-22T06:46:39.168Z,6.85
2023-04-22T06:49:26.422Z,6.35
2023-04-22T06:52:24.107Z,6.10
2023-04-22T06:54:54.326Z,5.90
2023-04-22T06:57:21.510Z,7.45
2023-04-22T06:59:53.987Z,6.88
2023-04-22T07:04:52.513Z,6.50
2023-04-22T07:07:20.101Z,6.43
2023-04-22T07:09:51.354Z,6.45
2023-04-22T07:12:21.160Z,6.70
2023-04-22T07:14:50.003Z,6.38
2023-04-22T07:17:19.813Z,6.82
2023-04-22T07:19:47.161Z,6.97
2023-04-22T07:22:14.509Z,6.68
2023-04-22T07:24:45.954Z,6.82
2023-04-22T07:27:19.366Z,7.25
2023-04-22T07:29:46.731Z,6.97
2023-04-22T07:32:16.893Z,7.32
2023-04-22T07:34:56.283Z,6.47
2023-04-22T07:37:56.874Z,7.20
2023-04-22T07:40:46.864Z,7.28
2023-04-22T07:43:27.191Z,8.20
2023-04-22T07:46:00.720Z,7.47
2023-04-22T07:48:31.513Z,7.97
2023-04-22T07:51:10.618Z,7.45
2023-04-22T07:53:42.194Z,7.15
2023-04-22T07:56:15.384Z,8.38
2023-04-22T07:58:45.816Z,9.48
2023-04-22T08:01:18.720Z,8.93
2023-04-22T08:03:53.362Z,8.55
2023-04-22T08:06:23.656Z,9.00
2023-04-22T08:08:53.928Z,8.25
2023-04-22T08:11:32.802Z,8.15
2023-04-22T08:14:09.859Z,8.43
2023-04-22T08:16:41.911Z,7.70
2023-04-22T08:19:12.939Z,5.32
2023-04-22T08:21:47.743Z,3.95
2023-04-22T08:24:29.293Z,3.53
2023-04-22T08:27:04.812Z,3.38
2023-04-22T08:29:44.259Z,4.45
2023-04-22T08:32:43.115Z,5.53
2023-04-22T08:35:21.714Z,5.13
2023-04-22T08:38:05.976Z,3.83
2023-04-22T08:40:50.037Z,5.40
2023-04-22T08:43:36.926Z,4.50
2023-04-22T08:47:04.139Z,4.20
2023-04-22T08:49:39.905Z,5.68
2023-04-22T08:53:02.775Z,5.22
2023-04-22T08:55:50.898Z,5.68
2023-04-22T08:58:26.342Z,10.00
2023-04-22T09:01:17.294Z,6.28
2023-04-22T09:03:55.753Z,6.30
2023-04-22T09:06:39.226Z,7.20
2023-04-22T09:12:32.677Z,7.72
2023-04-22T09:15:14.095Z,7.38
2023-04-22T09:17:52.895Z,7.78
2023-04-22T09:20:51.682Z,7.53
2023-04-22T09:23:32.025Z,5.82
2023-04-22T09:26:11.821Z,6.68
2023-04-22T09:29:01.262Z,6.30
2023-04-22T09:31:36.800Z,7.55
2023-04-22T09:34:14.108Z,7.53
2023-04-22T09:37:08.535Z,6.40
2023-04-22T09:40:14.886Z,5.88
2023-04-22T09:43:01.545Z,6.32
2023-04-22T09:45:53.278Z,6.03
2023-04-22T09:48:47.644Z,6.03
2023-04-22T09:51:19.967Z,5.57
2023-04-22T09:54:24.250Z,6.15
2023-04-22T09:57:13.310Z,5.28
2023-04-22T10:00:00.559Z,5.80
2023-04-22T10:02:37.791Z,6.38
2023-04-22T10:05:12.543Z,6.65
2023-04-22T10:07:55.271Z,5.70
2023-04-22T10:13:23.607Z,6.65
2023-04-22T10:16:09.486Z,6.60
2023-04-22T10:18:48.284Z,7.68
2023-04-22T10:21:29.545Z,4.82
2023-04-22T10:24:12.958Z,5.60
2023-04-22T10:26:52.087Z,5.22
2023-04-22T10:29:28.253Z,6.22
2023-04-22T10:32:12.914Z,5.00
2023-04-22T10:34:44.486Z,4.10
2023-04-22T10:37:18.482Z,5.57
2023-04-22T10:40:31.621Z,4.90
2023-04-22T10:43:16.496Z,4.85
2023-04-22T10:45:59.688Z,4.43
2023-04-22T10:49:08.835Z,5.18
2023-04-22T10:51:48.196Z,5.72
2023-04-22T10:54:50.264Z,5.03
2023-04-22T10:57:24.995Z,5.55
2023-04-22T11:03:33.604Z,5.05
2023-04-22T11:06:29.760Z,4.97
2023-04-22T11:09:27.310Z,4.88
2023-04-22T11:12:32.091Z,4.82
2023-04-22T11:15:25.073Z,5.43
2023-04-22T11:18:02.677Z,5.47
2023-04-22T11:20:44.516Z,4.85
2023-04-22T11:23:33.236Z,5.47
2023-04-22T11:26:13.043Z,4.65
2023-04-22T11:28:57.027Z,5.00
2023-04-22T11:31:52.950Z,4.15
2023-04-22T11:34:32.584Z,4.32
2023-04-22T11:37:07.858Z,5.90
2023-04-22T11:39:44.377Z,4.55
2023-04-22T11:42:24.148Z,5.28
2023-04-22T11:45:00.660Z,5.13
2023-04-22T11:47:37.678Z,5.63
2023-04-22T11:50:38.515Z,5.07
2023-04-22T11:53:26.191Z,5.45
2023-04-22T11:56:06.831Z,5.22
2023-04-22T11:58:59.408Z,5.72
2023-04-22T12:01:51.711Z,5.63
2023-04-22T12:04:29.376Z,4.75
2023-04-22T12:07:22.361Z,5.32
2023-04-22T12:10:15.826Z,4.95
2023-04-22T12:12:44.590Z,4.97
2023-04-22T12:15:18.903Z,4.40
2023-04-22T12:18:14.808Z,5.53
2023-04-22T12:21:03.401Z,4.60
2023-04-22T12:26:33.371Z,4.13
2023-04-22T12:29:10.718Z,4.25
2023-04-22T12:31:39.655Z,5.10
2023-04-22T12:34:07.759Z,4.57
2023-04-22T12:36:41.233Z,4.45
2023-04-22T12:39:26.725Z,4.63
2023-04-22T12:42:00.044Z,4.53
2023-04-22T12:44:27.738Z,6.18
2023-04-22T12:46:58.514Z,4.47
2023-04-22T12:49:28.653Z,4.93
2023-04-22T12:51:59.600Z,6.05
2023-04-22T12:54:28.721Z,5.38
2023-04-22T12:57:02.517Z,4.57
2023-04-22T12:59:41.867Z,5.25
2023-04-22T13:02:20.176Z,4.72
2023-04-22T13:04:47.589Z,4.90
2023-04-22T13:07:15.252Z,5.13
2023-04-22T13:09:52.082Z,5.28
2023-04-22T13:12:32.178Z,5.68
2023-04-22T13:14:59.722Z,5.00
2023-04-22T13:17:29.940Z,4.57
2023-04-22T13:19:57.604Z,5.47
2023-04-22T13:22:24.784Z,4.38
2023-04-22T13:24:52.464Z,4.65
2023-04-22T13:27:22.066Z,4.30
2023-04-22T13:29:49.459Z,5.28
2023-04-22T13:32:22.716Z,3.80
2023-04-22T13:37:24.904Z,4.18
2023-04-22T13:39:57.306Z,4.43
2023-04-22T13:42:24.742Z,3.80
2023-04-22T13:44:54.112Z,5.15
2023-04-22T13:47:21.532Z,4.75
2023-04-22T13:49:49.260Z,4.68
2023-04-22T13:52:18.820Z,4.80
2023-04-22T13:54:48.810Z,5.25
2023-04-22T13:57:16.196Z,4.57
2023-04-22T13:59:43.278Z,4.53
2023-04-22T14:02:18.320Z,4.90
2023-04-22T14:04:45.839Z,4.72
2023-04-22T14:07:13.994Z,4.82
2023-04-22T14:09:44.247Z,4.32
2023-04-22T14:12:12.345Z,4.63
2023-04-22T14:14:39.912Z,4.13
2023-04-22T14:17:07.489Z,4.97
2023-04-22T14:19:36.695Z,5.32
2023-04-22T14:22:13.025Z,4.97
2023-04-22T14:24:43.130Z,4.45
2023-04-22T14:27:12.582Z,4.57
2023-04-22T14:29:44.044Z,4.43
2023-04-22T14:32:13.300Z,5.15
2023-04-22T14:34:40.888Z,4.30
2023-04-22T14:37:11.187Z,4.53
2023-04-22T14:39:38.991Z,4.40
2023-04-22T14:42:06.510Z,3.88
2023-04-22T14:44:33.701Z,4.32
2023-04-22T14:47:01.012Z,3.88
2023-04-22T14:49:28.286Z,3.50
2023-04-22T14:52:01.075Z,4.43
2023-04-22T14:54:28.629Z,4.53
2023-04-22T14:56:56.627Z,3.72
2023-04-22T14:59:27.159Z,3.72
2023-04-22T15:01:58.168Z,3.83
2023-04-22T15:04:26.880Z,3.45
2023-04-22T15:06:57.685Z,3.67
2023-04-22T15:09:24.962Z,3.15
2023-04-22T15:11:54.991Z,3.95
2023-04-22T15:14:22.527Z,4.28
2023-04-22T15:16:49.852Z,3.75
2023-04-22T15:19:17.112Z,3.50
2023-04-22T15:21:44.261Z,4.60
2023-04-22T15:24:11.444Z,6.10
2023-04-22T15:26:41.025Z,4.93
2023-04-22T15:29:08.416Z,4.40
2023-04-22T15:31:35.521Z,5.00
2023-04-22T15:34:02.718Z,5.28
2023-04-22T15:36:31.732Z,5.80
2023-04-22T15:38:59.768Z,5.15
2023-04-22T15:41:30.522Z,5.18
2023-04-22T15:43:57.807Z,5.65
2023-04-22T15:46:33.353Z,5.50
2023-04-22T15:49:00.900Z,6.00
2023-04-22T15:51:29.225Z,6.10
2023-04-22T15:54:02.949Z,6.05
2023-04-22T15:56:30.308Z,6.45
2023-04-22T15:58:57.599Z,6.40
2023-04-22T16:01:25.120Z,5.05
2023-04-22T16:03:52.828Z,6.38
2023-04-22T16:06:20.470Z,5.93
2023-04-22T16:08:47.862Z,6.28
2023-04-22T16:11:15.867Z,5.00
2023-04-22T16:13:43.730Z,5.72
2023-04-22T16:16:11.521Z,6.78
2023-04-22T16:18:40.021Z,5.53
2023-04-22T16:21:11.280Z,5.63
2023-04-22T16:23:41.611Z,6.15
2023-04-22T16:26:09.409Z,6.60
2023-04-22T16:28:36.602Z,5.93
2023-04-22T16:31:04.237Z,5.53
2023-04-22T16:33:33.950Z,5.30
2023-04-22T16:36:01.430Z,6.28
2023-04-22T16:38:28.722Z,5.75
2023-04-22T16:40:56.360Z,6.40
2023-04-22T16:43:24.286Z,6.10
2023-04-22T16:45:51.623Z,5.97
2023-04-22T16:48:19.400Z,6.35
2023-04-22T16:50:46.871Z,6.30
2023-04-22T16:53:14.323Z,6.25
2023-04-22T16:55:41.671Z,6.13
2023-04-22T16:58:09.216Z,5.60
2023-04-22T17:00:37.064Z,6.30
2023-04-22T17:03:05.527Z,5.85
2023-04-22T17:05:33.309Z,6.00
2023-04-22T17:08:00.754Z,5.70
2023-04-22T17:10:28.940Z,6.03
2023-04-22T17:12:56.325Z,5.88
2023-04-22T17:15:23.650Z,6.18
2023-04-22T17:17:52.001Z,6.75
2023-04-22T17:20:19.605Z,6.95
2023-04-22T17:22:49.306Z,5.78
2023-04-22T17:25:16.563Z,6.65
2023-04-22T17:27:43.801Z,6.15
2023-04-22T17:30:11.479Z,5.63
2023-04-22T17:32:38.683Z,4.95
2023-04-22T17:35:09.472Z,4.40
2023-04-22T17:37:36.980Z,5.80
2023-04-22T17:40:07.451Z,6.13
2023-04-22T17:42:45.899Z,5.53
2023-04-22T17:45:15.871Z,6.38
2023-04-22T17:47:43.614Z,5.25
2023-04-22T17:50:11.416Z,6.22
2023-04-22T17:52:40.416Z,4.93
2023-04-22T17:55:08.393Z,5.88
2023-04-22T17:57:35.761Z,5.35
2023-04-22T18:00:04.009Z,5.57
2023-04-22T18:02:35.372Z,4.53
2023-04-22T18:05:03.421Z,5.60
2023-04-22T18:07:30.771Z,4.85
2023-04-22T18:09:58.096Z,5.68
2023-04-22T18:12:30.366Z,5.15
2023-04-22T18:14:58.629Z,5.32
2023-04-22T18:17:26.140Z,6.10
2023-04-22T18:20:09.713Z,6.47
2023-04-22T18:22:44.502Z,5.65
2023-04-22T18:25:11.666Z,5.72
2023-04-22T18:27:42.698Z,5.72
2023-04-22T18:30:13.145Z,6.55
2023-04-22T18:32:40.756Z,5.93
2023-04-22T18:35:08.699Z,5.63
2023-04-22T18:37:36.211Z,5.65
2023-04-22T18:40:05.468Z,5.90
2023-04-22T18:42:32.850Z,5.65
2023-04-22T18:45:01.940Z,5.60
2023-04-22T18:47:33.370Z,6.22
2023-04-22T18:50:05.415Z,6.30
2023-04-22T18:52:33.342Z,5.47
2023-04-22T18:55:06.784Z,6.32
2023-04-22T18:57:43.995Z,6.40
2023-04-22T19:00:13.453Z,6.53
2023-04-22T19:02:42.346Z,7.05
2023-04-22T19:05:10.271Z,7.03
2023-04-22T19:07:38.532Z,5.15
2023-04-22T19:10:07.089Z,6.43
2023-04-22T19:12:34.657Z,6.22
2023-04-22T19:15:02.196Z,5.47
2023-04-22T19:17:29.336Z,6.28
2023-04-22T19:19:56.580Z,6.35
2023-04-22T19:22:24.136Z,6.85
2023-04-22T19:24:51.491Z,6.85
2023-04-22T19:27:19.109Z,5.93
2023-04-22T19:29:51.513Z,5.70
2023-04-22T19:32:19.604Z,6.82
2023-04-22T19:34:47.621Z,7.38
2023-04-22T19:37:14.828Z,6.43
2023-04-22T19:39:44.278Z,6.43
2023-04-22T19:42:11.766Z,5.68
2023-04-22T19:44:41.376Z,6.47
2023-04-22T19:47:08.785Z,7.13
2023-04-22T19:49:36.157Z,6.38
2023-04-22T19:52:09.663Z,6.00
2023-04-22T19:54:38.746Z,7.00
2023-04-22T19:57:07.006Z,5.93
2023-04-22T19:59:34.779Z,6.20
2023-04-22T20:02:02.080Z,5.88
2023-04-22T20:04:36.719Z,6.00
2023-04-22T20:07:07.848Z,6.35
2023-04-22T20:09:36.597Z,7.65
2023-04-22T20:12:05.136Z,7.30
2023-04-22T20:14:33.237Z,6.15
2023-04-22T20:17:00.593Z,5.78
2023-04-22T20:19:28.577Z,6.75
2023-04-22T20:21:57.500Z,7.38
2023-04-22T20:24:29.632Z,7.20
2023-04-22T20:27:00.272Z,6.68
2023-04-22T20:29:27.669Z,7.22
2023-04-22T20:31:55.870Z,6.68
2023-04-22T20:34:23.321Z,6.00
2023-04-22T20:36:53.873Z,6.80
2023-04-22T20:39:22.568Z,6.18
2023-04-22T20:41:54.300Z,6.50
2023-04-22T20:44:21.481Z,7.90
2023-04-22T20:46:48.963Z,6.18
2023-04-22T20:49:17.589Z,6.78
2023-04-22T20:51:44.714Z,7.00
2023-04-22T20:54:27.781Z,8.20
2023-04-22T20:56:57.954Z,8.32
2023-04-22T20:59:25.145Z,6.50
2023-04-22T21:01:54.736Z,7.80
2023-04-22T21:04:24.195Z,7.38
2023-04-22T21:06:52.680Z,7.00
2023-04-22T21:09:27.302Z,7.53
2023-04-22T21:11:57.590Z,7.40
2023-04-22T21:14:27.085Z,6.63
2023-04-22T21:17:01.778Z,6.10
2023-04-22T21:19:35.493Z,7.13
2023-04-22T21:22:06.775Z,7.25
2023-04-22T21:24:35.259Z,6.28
2023-04-22T21:27:03.125Z,7.03
2023-04-22T21:29:30.690Z,6.28
2023-04-22T21:32:07.365Z,6.20
2023-04-22T21:34:36.307Z,6.93
2023-04-22T21:37:04.736Z,6.15
2023-04-22T21:39:31.992Z,6.85
2023-04-22T21:41:59.189Z,6.95
2023-04-22T21:44:27.121Z,7.38
2023-04-22T21:46:54.516Z,6.75
2023-04-22T21:49:30.528Z,6.47
2023-04-22T21:51:57.718Z,5.75
2023-04-22T21:54:24.848Z,6.22
2023-04-22T21:56:51.977Z,7.35
2023-04-22T21:59:19.232Z,7.80
2023-04-22T22:01:46.926Z,9.05
2023-04-22T22:04:15.947Z,8.65
2023-04-22T22:06:45.436Z,8.57
2023-04-22T22:09:13.990Z,9.85
2023-04-22T22:11:41.266Z,8.52
2023-04-22T22:14:08.671Z,8.55
2023-04-22T22:16:36.024Z,10.02
2023-04-22T22:19:04.829Z,9.60
2023-04-22T22:21:33.155Z,10.05
2023-04-22T22:24:00.494Z,10.40
2023-04-22T22:26:28.128Z,11.20
2023-04-22T22:28:55.673Z,9.50
2023-04-22T22:31:22.871Z,11.30
2023-04-22T22:33:50.072Z,9.90
2023-04-22T22:36:17.553Z,9.23
2023-04-22T22:38:44.696Z,9.65
2023-04-22T22:41:12.005Z,9.50
2023-04-22T22:43:40.602Z,10.05
2023-04-22T22:46:08.045Z,9.57
2023-04-22T22:48:38.001Z,10.00
2023-04-22T22:51:05.162Z,8.73
2023-04-22T22:53:34.501Z,9.60
2023-04-22T22:56:01.650Z,8.57
2023-04-22T22:58:28.749Z,9.98
2023-04-22T23:00:56.382Z,10.45
2023-04-22T23:03:23.620Z,10.15
2023-04-22T23:05:54.054Z,9.98
2023-04-22T23:08:21.208Z,11.32
2023-04-22T23:10:48.167Z,10.80
2023-04-22T23:13:15.296Z,11.52
2023-04-22T23:15:42.787Z,12.73
2023-04-22T23:18:10.225Z,11.85
2023-04-22T23:20:37.669Z,12.60
2023-04-22T23:23:05.301Z,12.05
2023-04-22T23:25:32.843Z,13.25
2023-04-22T23:28:00.858Z,13.65
2023-04-22T23:30:28.318Z,12.82
2023-04-22T23:32:59.858Z,13.50
2023-04-22T23:35:27.632Z,13.25
2023-04-22T23:37:55.195Z,13.50
2023-04-22T23:40:25.627Z,13.90
2023-04-22T23:42:53.582Z,13.20
2023-04-22T23:45:20.786Z,11.77
2023-04-22T23:47:48.085Z,13.55
2023-04-22T23:50:16.133Z,13.38
2023-04-22T23:52:43.392Z,14.15
2023-04-22T23:55:11.865Z,13.60
2023-04-22T23:57:39.390Z,14.52
